Time;durP1;ratioP1;P1;durP2;ratioP2;P2;SDS_P1;SDS_P2;PMS_P1;PMS_P2;Temp;Humidity;BMP_temperature;BMP_pressure;BME280_temperature;BME280_humidity;BME280_pressure;Samples;Min_cycle;Max_cycle;Signal;HPM_P1;HPM_P2
2021/08/30 00:02:17;;;;;;;10.90;8.00;;;16.50;99.90;;;16.33;100.00;98017.84;5070218;28;21186;-79
2021/08/30 00:04:45;;;;;;;12.17;9.20;;;16.50;99.90;;;16.31;100.00;98012.72;5063006;28;20632;-79
2021/08/30 00:07:14;;;;;;;10.03;8.40;;;16.50;99.90;;;16.31;100.00;98007.44;5068496;28;20725;-79
2021/08/30 00:09:43;;;;;;;11.80;9.00;;;16.50;99.90;;;16.32;100.00;98001.19;5063863;28;20665;-79
2021/08/30 00:12:12;;;;;;;10.77;8.93;;;16.50;99.90;;;16.32;100.00;98003.00;5061151;28;20624;-79
2021/08/30 00:14:40;;;;;;;12.93;10.53;;;16.50;99.90;;;16.30;100.00;98002.31;5065822;28;21008;-79
2021/08/30 00:17:10;;;;;;;14.03;9.70;;;16.50;99.90;;;16.30;100.00;98004.97;5060101;28;20622;-79
2021/08/30 00:19:39;;;;;;;11.73;10.10;;;16.40;99.90;;;16.30;100.00;97995.25;5082332;28;21339;-79
2021/08/30 00:22:08;;;;;;;12.90;10.83;;;16.50;99.90;;;16.31;100.00;97996.06;5069571;28;20624;-79
2021/08/30 00:24:36;;;;;;;13.40;10.70;;;16.50;99.90;;;16.31;100.00;97996.06;5058212;28;20655;-79
2021/08/30 00:27:05;;;;;;;14.80;11.63;;;16.50;99.90;;;16.33;100.00;97994.97;5066858;28;20616;-79
2021/08/30 00:29:34;;;;;;;14.20;11.10;;;16.50;99.90;;;16.31;100.00;97991.66;5054057;28;20639;-79
2021/08/30 00:32:04;;;;;;;16.03;12.20;;;16.50;99.90;;;16.31;100.00;97996.06;5071272;28;21047;-79
2021/08/30 00:34:34;;;;;;;14.37;10.67;;;16.40;99.90;;;16.27;100.00;97990.28;5067324;28;21052;-79
2021/08/30 00:37:03;;;;;;;16.90;11.27;;;16.40;99.90;;;16.27;100.00;97992.09;5064879;28;21257;-79
2021/08/30 00:39:32;;;;;;;17.90;11.80;;;16.40;99.90;;;16.27;100.00;97992.91;5069009;28;20717;-79
2021/08/30 00:42:00;;;;;;;16.23;11.80;;;16.40;99.90;;;16.27;100.00;97987.63;5081869;28;20614;-79
2021/08/30 00:44:29;;;;;;;15.33;11.57;;;16.40;99.90;;;16.26;100.00;97988.59;5067621;28;20654;-79
2021/08/30 00:46:58;;;;;;;14.63;11.40;;;16.40;99.90;;;16.27;100.00;97985.00;5060983;28;20704;-79
2021/08/30 00:49:27;;;;;;;14.20;11.17;;;16.40;99.90;;;16.28;100.00;97981.41;5085308;28;20720;-79
2021/08/30 00:51:57;;;;;;;15.50;12.40;;;16.40;99.90;;;16.28;100.00;97991.09;5070062;28;20628;-79
2021/08/30 00:54:28;;;;;;;16.47;12.40;;;16.40;99.90;;;16.27;100.00;97987.63;5054245;28;21240;-79
2021/08/30 00:56:58;;;;;;;16.00;12.53;;;16.40;99.90;;;16.28;100.00;97985.81;5083460;28;20611;-79
2021/08/30 00:59:26;;;;;;;18.00;11.93;;;16.40;99.90;;;16.25;100.00;97986.97;5065743;28;20635;-79
2021/08/30 01:01:55;;;;;;;16.33;12.43;;;16.40;99.90;;;16.24;100.00;97976.56;5066932;28;21063;-79
2021/08/30 01:04:25;;;;;;;15.70;12.50;;;16.40;99.90;;;16.26;100.00;97982.50;5067245;28;20616;-79
2021/08/30 01:07:01;;;;;;;16.40;12.00;;;16.40;99.90;;;16.25;100.00;97975.56;5065261;28;20642;-79
2021/08/30 01:09:37;;;;;;;17.60;12.90;;;16.40;99.90;;;16.26;100.00;97977.25;5062033;28;20633;-79
2021/08/30 01:12:14;;;;;;;19.53;14.03;;;16.40;99.90;;;16.23;100.00;97977.53;5064981;28;20988;-79
2021/08/30 01:14:51;;;;;;;14.70;12.30;;;16.40;99.90;;;16.20;100.00;97970.72;5065523;28;20661;-79
2021/08/30 01:17:21;;;;;;;19.00;14.07;;;16.40;99.90;;;16.21;100.00;97968.94;5066559;28;20729;-79
2021/08/30 01:20:10;;;;;;;18.97;13.13;;;16.40;99.90;;;16.22;100.00;97967.97;5070977;28;20669;-79
2021/08/30 01:22:44;;;;;;;16.10;12.63;;;16.40;99.90;;;16.20;100.00;97969.88;5060474;28;20623;-79
2021/08/30 01:25:17;;;;;;;16.67;12.53;;;16.40;99.90;;;16.19;100.00;97968.22;5066537;28;20631;-79
2021/08/30 01:27:49;;;;;;;17.73;12.73;;;16.30;99.90;;;16.18;100.00;97969.22;5067146;28;20630;-79
2021/08/30 01:30:20;;;;;;;17.07;13.70;;;16.30;99.90;;;16.20;100.00;97969.88;5064357;28;20639;-79
2021/08/30 01:32:54;;;;;;;13.93;11.83;;;16.40;99.90;;;16.19;100.00;97961.19;5081446;28;20627;-79
2021/08/30 01:35:27;;;;;;;15.90;12.80;;;16.40;99.90;;;16.19;100.00;97952.44;5065088;28;20652;-79
2021/08/30 01:37:59;;;;;;;17.53;12.37;;;16.40;99.90;;;16.16;100.00;97958.81;5066845;28;20638;-79
2021/08/30 01:40:30;;;;;;;14.90;11.83;;;16.30;99.90;;;16.15;100.00;97964.22;5065122;28;20613;-79
2021/08/30 01:43:01;;;;;;;15.40;12.70;;;16.30;99.90;;;16.17;100.00;97962.28;5067409;28;20630;-79
2021/08/30 01:45:33;;;;;;;16.30;12.90;;;16.30;99.90;;;16.17;100.00;97963.09;5067760;28;20718;-79
2021/08/30 01:48:05;;;;;;;17.13;12.57;;;16.30;99.90;;;16.19;100.00;97957.69;5066522;28;21162;-79
2021/08/30 01:50:38;;;;;;;14.27;12.00;;;16.40;99.90;;;16.19;100.00;97960.31;5049910;28;20674;-79
2021/08/30 01:53:10;;;;;;;16.10;11.63;;;16.30;99.90;;;16.18;100.00;97959.50;5084442;28;20625;-79
2021/08/30 01:55:43;;;;;;;14.30;11.83;;;16.30;99.90;;;16.21;100.00;97963.66;5058771;28;20676;-79
2021/08/30 02:01:00;;;;;;;13.63;10.10;;;16.40;99.90;;;16.19;100.00;97955.06;5064666;28;20710;-79
2021/08/30 02:03:32;;;;;;;12.13;10.63;;;16.30;99.90;;;16.19;100.00;97949.78;5066985;28;20630;-79
2021/08/30 02:06:03;;;;;;;12.53;9.90;;;16.40;99.90;;;16.17;100.00;97952.56;5046800;28;20992;-79
2021/08/30 02:08:34;;;;;;;12.13;10.10;;;16.30;99.90;;;16.15;100.00;97948.44;5070679;28;20697;-79
2021/08/30 02:11:07;;;;;;;13.40;9.10;;;16.30;99.90;;;16.13;100.00;97950.38;5082191;28;20641;-79
2021/08/30 02:13:35;;;;;;;10.43;9.33;;;16.30;99.90;;;16.12;100.00;97946.91;5067956;28;20625;-79
2021/08/30 02:16:05;;;;;;;10.47;8.00;;;16.30;99.90;;;16.13;100.00;97937.19;5085835;28;20635;-79
2021/08/30 02:18:41;;;;;;;10.33;8.03;;;16.30;99.90;;;16.11;100.00;97934.72;5072046;28;20630;-79
2021/08/30 02:21:16;;;;;;;9.50;8.30;;;16.30;99.90;;;16.10;100.00;97935.72;5070610;28;20661;-79
2021/08/30 02:23:57;;;;;;;8.13;7.33;;;16.30;99.90;;;16.09;100.00;97933.22;5069276;28;20618;-79
2021/08/30 02:26:31;;;;;;;7.67;6.87;;;16.30;99.90;;;16.10;100.00;97929.59;5065513;28;21202;-79
2021/08/30 02:29:03;;;;;;;8.40;7.50;;;16.30;99.90;;;16.07;100.00;97936.00;5062285;28;20751;-79
2021/08/30 02:31:32;;;;;;;7.10;6.40;;;16.30;99.90;;;16.05;100.00;97937.09;5070869;28;21213;-79
2021/08/30 02:34:03;;;;;;;7.27;6.53;;;16.20;99.90;;;16.05;100.00;97931.84;5064528;28;20659;-79
2021/08/30 02:36:33;;;;;;;7.20;6.50;;;16.20;99.90;;;16.06;100.00;97933.50;5066529;28;20637;-79
2021/08/30 02:39:03;;;;;;;9.00;7.53;;;16.20;99.90;;;16.04;100.00;97931.00;5055577;28;20719;-79
2021/08/30 02:41:33;;;;;;;7.90;7.10;;;16.20;99.90;;;16.03;100.00;97923.25;5073024;28;20986;-79
2021/08/30 02:44:02;;;;;;;8.73;7.50;;;16.20;99.90;;;16.04;100.00;97925.75;5071209;28;20622;-79
2021/08/30 02:46:31;;;;;;;7.87;6.87;;;16.20;99.90;;;16.04;100.00;97930.16;5070972;28;21146;-79
2021/08/30 02:49:03;;;;;;;7.77;6.77;;;16.20;99.90;;;16.02;100.00;97932.13;5069052;28;20646;-79
2021/08/30 02:51:33;;;;;;;7.53;6.63;;;16.20;99.90;;;16.01;100.00;97935.72;5071184;28;20730;-79
2021/08/30 02:54:01;;;;;;;8.63;6.53;;;16.20;99.90;;;16.02;100.00;97933.94;5048501;28;21159;-79
2021/08/30 02:56:30;;;;;;;7.20;6.50;;;16.20;99.90;;;16.01;100.00;97930.44;5068964;28;21149;-79
2021/08/30 02:59:01;;;;;;;7.40;6.57;;;16.20;99.90;;;16.02;100.00;97933.94;5069201;28;21148;-79
2021/08/30 03:01:30;;;;;;;7.07;6.00;;;16.20;99.90;;;16.02;100.00;97930.31;5066368;28;20629;-79
2021/08/30 03:03:59;;;;;;;7.73;6.50;;;16.20;99.90;;;16.01;100.00;97927.81;5066425;28;20639;-79
2021/08/30 03:06:29;;;;;;;7.00;6.27;;;16.20;99.90;;;16.02;100.00;97922.41;5067427;28;20650;-79
2021/08/30 03:08:58;;;;;;;7.30;5.93;;;16.20;99.90;;;16.02;100.00;97922.41;5083278;28;20719;-79
2021/08/30 03:11:32;;;;;;;7.40;6.27;;;16.20;99.90;;;16.01;100.00;97917.28;5047744;28;20709;-79
2021/08/30 03:14:02;;;;;;;7.30;6.10;;;16.20;99.90;;;16.01;100.00;97924.38;5068598;28;20623;-79
2021/08/30 03:16:32;;;;;;;7.70;6.27;;;16.20;99.90;;;16.00;100.00;97917.44;5053984;28;20686;-79
2021/08/30 03:19:01;;;;;;;7.67;6.87;;;16.20;99.90;;;15.98;100.00;97925.47;5067347;28;20628;-79
2021/08/30 03:21:32;;;;;;;7.50;6.60;;;16.10;99.90;;;16.00;100.00;97910.38;5063996;28;20691;-79
2021/08/30 03:24:02;;;;;;;8.80;6.80;;;16.20;99.90;;;15.99;100.00;97916.63;5079673;28;20652;-79
2021/08/30 03:26:31;;;;;;;7.10;6.23;;;16.10;99.90;;;15.99;100.00;97910.53;5069067;28;20697;-79
2021/08/30 03:29:00;;;;;;;7.00;6.00;;;16.20;99.90;;;16.00;100.00;97912.16;5066629;28;21158;-79
2021/08/30 03:31:32;;;;;;;7.67;6.20;;;16.10;99.90;;;15.99;100.00;97919.25;5061139;28;20734;-79
2021/08/30 03:34:02;;;;;;;8.30;6.90;;;16.20;99.90;;;16.00;100.00;97912.16;5066581;28;21190;-79
2021/08/30 03:36:33;;;;;;;7.17;6.30;;;16.20;99.90;;;16.00;100.00;97913.03;5064984;28;20703;-79
2021/08/30 03:39:03;;;;;;;7.90;7.10;;;16.20;99.90;;;16.01;100.00;97909.41;5066999;28;20629;-79
2021/08/30 03:41:32;;;;;;;9.60;6.70;;;16.20;99.90;;;16.03;100.00;97912.72;5069295;28;20609;-79
2021/08/30 03:44:01;;;;;;;8.60;6.80;;;16.20;99.90;;;16.03;100.00;97907.47;5066903;28;20634;-79
2021/08/30 03:46:31;;;;;;;7.13;6.37;;;16.20;99.90;;;16.03;100.00;97910.09;5070386;28;20718;-79
2021/08/30 03:49:00;;;;;;;7.90;6.80;;;16.20;99.90;;;16.04;100.00;97920.50;5061511;28;20690;-79
2021/08/30 03:51:30;;;;;;;8.57;7.30;;;16.20;99.90;;;16.05;100.00;97916.03;5064600;28;20657;-79
2021/08/30 03:54:01;;;;;;;11.10;7.30;;;16.20;99.90;;;16.07;100.00;97916.72;5049605;28;20634;-79
2021/08/30 03:56:31;;;;;;;8.47;7.53;;;16.20;99.90;;;16.07;100.00;97909.69;5070211;28;20667;-79
2021/08/30 03:59:02;;;;;;;8.03;6.83;;;16.20;99.90;;;16.07;100.00;97914.09;5051087;28;20682;-79
2021/08/30 04:01:32;;;;;;;8.70;7.33;;;16.20;99.90;;;16.06;100.00;97913.28;5067043;28;20636;-79
2021/08/30 04:04:07;;;;;;;8.60;6.80;;;16.20;99.90;;;16.07;100.00;97908.81;5084866;28;20646;-79
2021/08/30 04:06:37;;;;;;;9.60;8.03;;;16.20;99.90;;;16.07;100.00;97911.47;5049307;28;20623;-79
2021/08/30 04:09:07;;;;;;;8.63;7.70;;;16.20;99.90;;;16.07;100.00;97914.94;5067410;28;20985;-79
2021/08/30 04:11:36;;;;;;;13.27;9.37;;;16.20;99.90;;;16.05;100.00;97921.31;5064976;28;20639;-79
2021/08/30 04:14:05;;;;;;;9.47;7.60;;;16.20;99.90;;;16.06;100.00;97918.53;5070032;28;20618;-79
2021/08/30 04:16:33;;;;;;;12.63;9.30;;;16.20;99.90;;;16.05;100.00;97921.31;5084015;28;20665;-79
2021/08/30 04:19:02;;;;;;;10.60;8.60;;;16.20;99.90;;;16.05;100.00;97916.03;5069486;28;20626;-79
2021/08/30 04:21:30;;;;;;;9.23;7.90;;;16.20;99.90;;;16.06;100.00;97915.91;5066673;28;20757;-79
2021/08/30 04:23:59;;;;;;;11.43;8.93;;;16.20;99.90;;;16.07;100.00;97927.25;5051539;28;20678;-79
2021/08/30 04:26:29;;;;;;;10.60;8.43;;;16.20;99.90;;;16.08;100.00;97926.28;5068817;28;21120;-79
2021/08/30 04:28:58;;;;;;;10.33;8.13;;;16.20;99.90;;;16.06;100.00;97922.97;5077234;28;20729;-79
2021/08/30 04:31:27;;;;;;;12.90;8.00;;;16.20;99.90;;;16.08;100.00;97927.09;5071659;28;20974;-79
2021/08/30 04:33:55;;;;;;;11.57;8.60;;;16.20;99.90;;;16.09;100.00;97926.16;5070189;28;20623;-79
2021/08/30 04:36:24;;;;;;;12.13;8.87;;;16.30;99.90;;;16.07;100.00;97922.84;5070284;28;20666;-79
2021/08/30 04:38:53;;;;;;;12.80;8.20;;;16.20;99.90;;;16.07;100.00;97925.47;5082765;28;21189;-79
2021/08/30 04:41:22;;;;;;;9.70;7.63;;;16.20;99.90;;;16.10;100.00;97930.44;5069858;28;20637;-79
2021/08/30 04:43:53;;;;;;;11.90;8.37;;;16.20;99.90;;;16.11;100.00;97931.25;5064790;28;20738;-79
2021/08/30 04:46:21;;;;;;;10.30;8.33;;;16.30;99.90;;;16.11;100.00;97924.19;5081480;28;20727;-79
2021/08/30 04:48:50;;;;;;;11.77;8.60;;;16.30;99.90;;;16.13;100.00;97927.53;5051864;28;21183;-79
2021/08/30 04:51:19;;;;;;;11.63;8.83;;;16.30;99.90;;;16.14;100.00;97933.59;5069535;28;20633;-79
2021/08/30 04:53:48;;;;;;;10.17;8.10;;;16.30;99.90;;;16.14;100.00;97930.97;5082083;28;20691;-79
2021/08/30 04:56:16;;;;;;;12.10;9.00;;;16.30;99.90;;;16.15;100.00;97937.91;5069600;28;20651;-79
2021/08/30 04:58:45;;;;;;;11.40;7.93;;;16.30;99.90;;;16.17;100.00;97933.31;5063536;28;20662;-79
2021/08/30 05:01:15;;;;;;;13.27;9.53;;;16.30;99.90;;;16.16;100.00;97935.13;5064380;28;20619;-79
2021/08/30 05:03:45;;;;;;;11.93;8.43;;;16.30;99.90;;;16.16;100.00;97934.28;5064608;28;20627;-79
2021/08/30 05:06:14;;;;;;;9.57;7.80;;;16.30;99.90;;;16.17;100.00;97935.97;5082060;28;21044;-79
2021/08/30 05:08:43;;;;;;;10.20;8.20;;;16.30;99.90;;;16.17;100.00;97930.69;5083958;28;20639;-79
2021/08/30 05:11:11;;;;;;;10.47;7.93;;;16.30;99.90;;;16.19;100.00;97940.13;5066086;28;20710;-79
2021/08/30 05:13:40;;;;;;;9.97;7.80;;;16.40;99.90;;;16.21;100.00;97948.69;5070808;28;20939;-79
2021/08/30 05:16:09;;;;;;;9.47;7.70;;;16.40;99.90;;;16.23;100.00;97946.78;5067139;28;20769;-79
2021/08/30 05:18:40;;;;;;;10.23;7.70;;;16.40;99.90;;;16.26;100.00;97956.19;5066450;28;20621;-79
2021/08/30 05:21:09;;;;;;;8.67;6.90;;;16.40;99.90;;;16.30;100.00;97952.31;5052906;28;20698;-79
2021/08/30 05:23:42;;;;;;;7.40;6.40;;;16.40;99.90;;;16.31;100.00;97946.06;5076534;28;20630;-79
2021/08/30 05:26:11;;;;;;;7.00;5.93;;;16.40;99.90;;;16.33;100.00;97947.59;5086953;28;20701;-79
2021/08/30 05:28:39;;;;;;;6.50;5.80;;;16.50;99.90;;;16.37;100.00;97953.38;5085517;28;21190;-79
2021/08/30 05:31:08;;;;;;;7.50;6.00;;;16.50;99.90;;;16.40;100.00;97959.19;5072179;28;20612;-79
2021/08/30 05:33:38;;;;;;;7.30;6.27;;;16.50;99.90;;;16.41;100.00;97950.31;5066051;28;20682;-79
2021/08/30 05:36:07;;;;;;;7.00;6.30;;;16.60;99.90;;;16.43;100.00;97952.81;5075240;28;20664;-79
2021/08/30 05:38:36;;;;;;;6.93;5.67;;;16.60;99.90;;;16.45;100.00;97951.69;5075177;28;20654;-79
2021/08/30 05:41:04;;;;;;;8.90;5.80;;;16.60;99.90;;;16.47;100.00;97948.94;5083390;28;20628;-79
2021/08/30 05:43:33;;;;;;;9.20;5.93;;;16.60;99.90;;;16.48;100.00;97955.81;5086205;28;20622;-79
2021/08/30 05:46:01;;;;;;;6.77;5.67;;;16.60;99.90;;;16.49;100.00;97954.88;5067072;28;21291;-79
2021/08/30 05:48:30;;;;;;;8.60;6.83;;;16.60;99.90;;;16.44;100.00;97949.22;5069548;28;20955;-79
2021/08/30 05:51:00;;;;;;;6.53;5.77;;;16.60;99.90;;;16.46;100.00;97949.88;5086157;28;20646;-79
2021/08/30 05:53:29;;;;;;;7.67;6.63;;;16.60;99.90;;;16.47;100.00;97948.94;5071347;28;20620;-79
2021/08/30 05:55:57;;;;;;;7.00;6.30;;;16.60;99.90;;;16.50;100.00;97948.63;5071384;28;20662;-79
2021/08/30 05:58:26;;;;;;;8.87;7.57;;;16.60;99.90;;;16.52;100.00;97953.63;5064404;28;20632;-79
2021/08/30 06:00:54;;;;;;;11.00;7.10;;;16.70;99.90;;;16.53;100.00;97955.25;5068951;28;20744;-79
2021/08/30 06:03:23;;;;;;;10.70;8.10;;;16.70;99.90;;;16.58;100.00;97958.31;5071509;28;20619;-79
2021/08/30 06:05:54;;;;;;;10.87;7.50;;;16.70;99.90;;;16.61;100.00;97950.13;5072302;28;20615;-79
2021/08/30 06:08:25;;;;;;;8.80;7.40;;;16.80;99.90;;;16.66;100.00;97955.78;5087945;28;20977;-79
2021/08/30 06:10:55;;;;;;;10.43;8.37;;;16.80;99.90;;;16.72;100.00;97955.19;5072809;28;20659;-79
2021/08/30 06:13:24;;;;;;;11.40;9.43;;;16.80;99.90;;;16.77;100.00;97955.56;5081624;28;21171;-79
2021/08/30 06:15:54;;;;;;;13.10;9.10;;;16.90;99.90;;;16.80;100.00;97960.56;5073742;28;21248;-79
2021/08/30 06:18:25;;;;;;;12.13;10.00;;;16.90;99.90;;;16.88;100.00;97955.38;5051913;28;21147;-79
2021/08/30 06:20:53;;;;;;;11.13;8.63;;;17.00;99.90;;;16.95;100.00;97953.81;5074773;28;20687;-79
2021/08/30 06:23:24;;;;;;;12.30;9.20;;;17.00;99.90;;;17.00;100.00;97960.31;5067412;28;20698;-79
2021/08/30 06:25:52;;;;;;;9.53;8.53;;;17.10;99.90;;;17.07;100.00;97960.56;5071076;28;20637;-79
2021/08/30 06:28:21;;;;;;;10.00;8.70;;;17.10;99.90;;;17.24;100.00;97967.69;5072279;28;21360;-79
2021/08/30 06:30:49;;;;;;;11.80;8.80;;;17.30;99.90;;;17.41;100.00;97964.22;5072043;28;20667;-79
2021/08/30 06:33:18;;;;;;;9.10;8.10;;;17.40;99.90;;;17.48;100.00;97969.63;5070169;28;20684;-79
2021/08/30 06:35:47;;;;;;;15.90;9.13;;;17.50;99.90;;;17.51;100.00;97971.09;5068982;28;20663;-79
2021/08/30 06:38:16;;;;;;;9.80;8.07;;;17.60;99.90;;;17.55;100.00;97959.28;5055848;28;20659;-79
2021/08/30 06:40:46;;;;;;;9.00;7.47;;;17.60;99.90;;;17.56;100.00;97967.03;5069271;28;21060;-79
2021/08/30 06:43:15;;;;;;;8.10;7.17;;;17.60;99.90;;;17.57;100.00;97959.94;5066226;28;20631;-79
2021/08/30 06:45:44;;;;;;;8.80;7.37;;;17.60;99.90;;;17.56;100.00;97968.84;5069996;28;20953;-79
2021/08/30 06:48:12;;;;;;;10.20;8.40;;;17.60;99.90;;;17.51;100.00;97971.09;5069206;28;20633;-79
2021/08/30 06:50:42;;;;;;;10.20;8.67;;;17.60;99.90;;;17.49;100.00;97973.06;5054411;28;20637;-79
2021/08/30 06:53:12;;;;;;;10.27;8.50;;;17.60;99.90;;;17.52;100.00;97975.41;5072383;28;20616;-79
2021/08/30 06:55:41;;;;;;;9.97;8.33;;;17.60;99.90;;;17.58;100.00;97974.81;5071959;28;20651;-79
2021/08/30 06:58:11;;;;;;;10.80;8.83;;;17.70;99.90;;;17.61;100.00;97967.41;5068440;28;20659;-79
2021/08/30 07:00:40;;;;;;;12.27;8.90;;;17.70;99.90;;;17.63;100.00;97969.91;5052253;28;20621;-79
2021/08/30 07:03:09;;;;;;;11.00;9.00;;;17.70;99.90;;;17.65;100.00;97973.19;5068994;28;20741;-79
2021/08/30 07:05:37;;;;;;;11.10;9.90;;;17.70;99.90;;;17.62;99.46;97977.00;5070384;28;20632;-79
2021/08/30 07:08:06;;;;;;;10.17;9.07;;;17.70;99.90;;;17.56;100.00;97972.31;5068898;28;20713;-79
2021/08/30 07:10:35;;;;;;;11.90;8.73;;;17.70;99.90;;;17.50;99.97;97967.66;5071314;28;20627;-79
2021/08/30 07:13:04;;;;;;;11.63;9.10;;;17.60;99.90;;;17.48;99.95;97971.41;5067780;28;20650;-79
2021/08/30 07:15:34;;;;;;;12.80;9.60;;;17.60;99.90;;;17.47;100.00;97975.84;5052792;28;20613;-79
2021/08/30 07:18:03;;;;;;;10.80;8.97;;;17.60;99.90;;;17.44;100.00;97969.22;5070989;28;21091;-79
2021/08/30 07:20:32;;;;;;;10.27;9.20;;;17.60;99.90;;;17.44;100.00;97977.13;5072445;28;21192;-79
2021/08/30 07:23:00;;;;;;;11.23;9.20;;;17.60;99.90;;;17.43;100.00;97978.13;5065920;28;21172;-79
2021/08/30 07:25:29;;;;;;;11.03;9.40;;;17.60;99.90;;;17.40;100.00;97981.88;5068936;28;21134;-79
2021/08/30 07:27:58;;;;;;;11.23;9.00;;;17.60;99.90;;;17.40;100.00;97970.50;5066463;28;20620;-79
2021/08/30 07:30:26;;;;;;;11.87;9.43;;;17.50;99.90;;;17.39;100.00;97982.03;5079133;28;20738;-79
2021/08/30 07:32:56;;;;;;;10.63;9.03;;;17.50;99.90;;;17.39;100.00;97976.75;5064926;28;20656;-79
2021/08/30 07:35:27;;;;;;;11.17;9.27;;;17.50;99.90;;;17.38;100.00;97980.34;5068035;28;20710;-79
2021/08/30 07:37:56;;;;;;;11.63;8.97;;;17.50;99.90;;;17.35;100.00;97981.50;5066053;28;20652;-79
2021/08/30 07:40:25;;;;;;;11.47;8.80;;;17.50;99.90;;;17.36;100.00;97977.03;5072275;28;20629;-79
2021/08/30 07:42:54;;;;;;;11.77;8.83;;;17.50;99.90;;;17.34;100.00;97977.19;5083553;28;20632;-79
2021/08/30 07:45:22;;;;;;;10.80;8.63;;;17.50;99.90;;;17.35;100.00;97991.19;5068364;28;20648;-79
2021/08/30 07:47:51;;;;;;;11.37;8.43;;;17.50;99.90;;;17.36;100.00;97987.59;5070738;28;21170;-79
2021/08/30 07:50:21;;;;;;;11.90;9.30;;;17.50;99.90;;;17.39;100.00;97989.94;5066889;28;20631;-79
2021/08/30 07:52:50;;;;;;;9.60;8.20;;;17.50;99.90;;;17.40;100.00;97994.25;5081474;28;20698;-79
2021/08/30 07:55:19;;;;;;;10.30;8.30;;;17.50;99.90;;;17.44;100.00;97996.44;5062814;28;20703;-79
2021/08/30 07:57:48;;;;;;;10.30;8.30;;;17.60;99.90;;;17.50;100.00;97998.47;5052134;28;20688;-79
2021/08/30 08:00:17;;;;;;;10.70;8.30;;;17.60;99.90;;;17.49;99.15;97994.16;5066376;28;20629;-79
2021/08/30 08:02:46;;;;;;;8.87;7.80;;;17.60;99.90;;;17.44;99.35;97998.22;5070795;28;20627;-79
2021/08/30 08:05:16;;;;;;;7.57;6.63;;;17.50;99.90;;;17.43;99.84;98005.31;5065264;28;20622;-79
2021/08/30 08:07:46;;;;;;;8.30;6.90;;;17.50;99.90;;;17.44;100.00;98000.84;5069473;28;20624;-79
2021/08/30 08:10:14;;;;;;;8.13;6.40;;;17.50;99.90;;;17.55;100.00;98015.50;5067854;28;21156;-79
2021/08/30 08:12:44;;;;;;;8.20;6.57;;;17.60;99.90;;;17.66;100.00;98007.34;5054698;28;20658;-79
2021/08/30 08:15:12;;;;;;;7.57;5.87;;;17.70;99.90;;;17.71;99.82;97999.84;5067263;28;20630;-79
2021/08/30 08:17:41;;;;;;;7.37;6.27;;;17.80;99.90;;;17.88;99.71;98016.66;5081251;28;20665;-79
2021/08/30 08:20:12;;;;;;;6.73;6.00;;;17.90;99.90;;;17.97;99.82;98008.66;5052610;28;20746;-79
2021/08/30 08:22:42;;;;;;;7.40;5.67;;;17.90;99.90;;;17.98;100.00;98019.06;5047827;28;20608;-79
2021/08/30 08:25:13;;;;;;;3.77;3.40;;;18.00;99.90;;;17.91;100.00;98017.16;5047278;28;20972;-79
2021/08/30 08:27:42;;;;;;;4.53;4.10;;;18.00;99.90;;;17.81;99.41;98029.59;5050819;28;20617;-79
2021/08/30 08:30:11;;;;;;;4.43;4.00;;;17.90;99.90;;;17.76;100.00;98023.94;5065329;28;20659;-79
2021/08/30 08:32:41;;;;;;;5.57;3.60;;;17.90;99.90;;;17.69;100.00;98033.44;5077453;28;21006;-79
2021/08/30 08:35:11;;;;;;;4.30;3.90;;;17.90;99.90;;;17.65;100.00;98031.25;5062396;28;20667;-79
2021/08/30 08:37:40;;;;;;;4.10;3.50;;;17.80;99.90;;;17.57;99.67;98033.81;5065230;28;21192;-79
2021/08/30 08:40:12;;;;;;;4.60;3.70;;;17.70;99.90;;;17.53;98.77;98038.56;5057256;28;20707;-79
2021/08/30 08:42:43;;;;;;;7.67;4.10;;;17.60;99.90;;;17.57;98.59;98034.63;5085497;28;20727;-79
2021/08/30 08:45:16;;;;;;;4.23;3.80;;;17.60;99.90;;;17.68;99.16;98029.16;5086786;28;20615;-79
2021/08/30 08:47:46;;;;;;;5.60;4.80;;;17.70;99.90;;;17.98;100.00;98032.25;5067857;28;20655;-79
2021/08/30 08:50:19;;;;;;;5.50;4.87;;;17.90;99.90;;;18.39;100.00;98026.34;5067974;28;20673;-79
2021/08/30 08:52:48;;;;;;;5.83;5.23;;;18.20;99.90;;;18.96;100.00;98031.81;5083663;28;20664;-79
2021/08/30 08:55:18;;;;;;;6.50;5.60;;;18.70;99.90;;;19.37;98.49;98038.97;5062549;28;21171;-79
2021/08/30 08:57:47;;;;;;;5.90;5.30;;;19.10;99.90;;;19.35;96.37;98046.22;5068200;28;20669;-79
2021/08/30 09:00:17;;;;;;;6.67;5.67;;;19.10;99.90;;;19.18;94.65;98047.16;5046339;28;21187;-79
2021/08/30 09:02:50;;;;;;;7.30;6.43;;;19.10;99.90;;;19.08;95.29;98041.19;5051921;28;20728;-79
2021/08/30 09:05:24;;;;;;;5.60;4.90;;;19.00;99.90;;;18.87;94.98;98040.69;5067777;28;20635;-79
2021/08/30 09:07:55;;;;;;;6.50;5.60;;;18.90;99.90;;;18.82;95.32;98039.50;5067227;28;20622;-79
2021/08/30 09:10:26;;;;;;;6.17;5.50;;;18.80;99.90;;;18.79;94.78;98043.28;5048809;28;20621;-79
2021/08/30 09:13:07;;;;;;;6.50;5.30;;;18.80;99.90;;;18.74;96.26;98045.56;5066695;28;20969;-79
2021/08/30 09:15:42;;;;;;;7.83;6.40;;;18.80;99.90;;;18.74;96.93;98036.81;5067578;28;21152;-79
2021/08/30 09:18:12;;;;;;;6.47;5.77;;;18.80;99.90;;;18.77;97.43;98042.59;5066929;28;20673;-79
2021/08/30 09:20:41;;;;;;;8.40;5.60;;;18.80;99.90;;;18.76;96.30;98048.88;5063775;28;20661;-79
2021/08/30 09:23:15;;;;;;;6.23;5.20;;;18.80;99.90;;;18.76;94.24;98050.69;5067807;28;20732;-79
2021/08/30 09:25:45;;;;;;;6.47;5.77;;;18.80;99.90;;;18.68;94.09;98055.94;5069646;28;20644;-79
2021/08/30 09:28:14;;;;;;;6.77;6.07;;;18.70;99.90;;;18.61;96.57;98050.44;5067009;28;20627;-79
2021/08/30 09:30:53;;;;;;;6.70;5.97;;;18.70;99.90;;;18.61;96.62;98060.16;5081646;28;20670;-79
2021/08/30 09:33:22;;;;;;;7.77;6.17;;;18.70;99.90;;;18.56;96.54;98055.34;5070347;28;20638;-79
2021/08/30 09:35:57;;;;;;;6.60;6.00;;;18.60;99.90;;;18.49;97.13;98051.69;5045662;28;20635;-79
2021/08/30 09:38:28;;;;;;;7.40;6.63;;;18.60;99.90;;;18.46;96.59;98059.06;5070409;28;20714;-79
2021/08/30 09:41:11;;;;;;;7.03;6.33;;;18.60;99.90;;;18.48;97.17;98057.13;5065058;28;21125;-79
2021/08/30 09:43:39;;;;;;;7.37;6.60;;;18.60;99.90;;;18.53;95.36;98058.31;5079358;28;20625;-79
2021/08/30 09:46:09;;;;;;;9.13;6.37;;;18.60;99.90;;;18.51;95.94;98055.00;5069655;28;20680;-79
2021/08/30 09:48:43;;;;;;;7.33;6.23;;;18.50;99.90;;;18.56;96.95;98050.06;5067219;28;20724;-79
2021/08/30 09:51:14;;;;;;;7.30;6.57;;;18.60;99.90;;;18.50;96.28;98049.88;5070826;28;20632;-79
2021/08/30 09:53:43;;;;;;;6.90;6.20;;;18.60;99.90;;;18.43;94.63;98054.94;5068205;28;20666;-80
2021/08/30 09:56:13;;;;;;;7.77;6.97;;;18.50;99.90;;;18.36;96.92;98052.22;5084940;28;21005;-79
2021/08/30 09:58:46;;;;;;;7.33;6.60;;;18.40;99.90;;;18.32;96.17;98058.81;5063683;28;20700;-79
2021/08/30 10:01:19;;;;;;;9.03;6.60;;;18.40;99.90;;;18.22;94.97;98048.34;5064110;28;20613;-79
2021/08/30 10:03:49;;;;;;;7.80;6.40;;;18.30;99.90;;;18.22;96.30;98056.25;5085289;28;20643;-79
2021/08/30 10:06:19;;;;;;;8.40;7.40;;;18.30;99.90;;;18.23;95.09;98054.44;5071811;28;20613;-79
2021/08/30 10:08:48;;;;;;;7.67;6.63;;;18.20;99.90;;;18.52;97.14;98051.38;5072937;28;20723;-79
2021/08/30 10:11:19;;;;;;;7.40;6.40;;;18.40;99.90;;;18.84;96.95;98056.88;5076582;28;20633;-79
2021/08/30 10:13:47;;;;;;;7.47;6.47;;;18.70;99.90;;;18.88;94.41;98060.84;5084242;28;20629;-79
2021/08/30 10:16:17;;;;;;;8.73;6.43;;;18.80;99.90;;;18.90;94.45;98064.19;5071797;28;20660;-79
2021/08/30 10:18:49;;;;;;;6.50;5.33;;;18.80;99.90;;;18.84;93.48;98063.94;5072132;28;20669;-79
2021/08/30 10:21:19;;;;;;;7.53;5.50;;;18.80;99.90;;;18.71;95.54;98066.19;5070484;28;20653;-79
2021/08/30 10:23:48;;;;;;;7.20;6.10;;;18.70;99.90;;;18.68;93.93;98069.97;5072767;28;21165;-79
2021/08/30 10:26:18;;;;;;;6.17;4.87;;;18.70;99.90;;;18.60;94.82;98062.00;5063762;28;21183;-79